sensor_id;sensor_type;location;lat;lon;timestamp;pressure;altitude;pressure_sealevel;temperature;humidity
19676;BME280;39539;52.202;9.876;2023-06-14T00:00:09;100975.53;;;15.58;65.00
19676;BME280;39539;52.202;9.876;2023-06-14T00:02:38;100968.28;;;15.47;65.29
19676;BME280;39539;52.202;9.876;2023-06-14T00:05:05;100981.91;;;15.45;65.31
19676;BME280;39539;52.202;9.876;2023-06-14T00:07:35;100978.66;;;15.43;67.18
19676;BME280;39539;52.202;9.876;2023-06-14T00:10:02;100993.31;;;15.41;66.21
19676;BME280;39539;52.202;9.876;2023-06-14T00:12:27;100978.06;;;15.30;66.42
19676;BME280;39539;52.202;9.876;2023-06-14T00:14:52;100991.13;;;15.38;65.46
19676;BME280;39539;52.202;9.876;2023-06-14T00:17:17;100997.63;;;15.42;65.57
19676;BME280;39539;52.202;9.876;2023-06-14T00:19:43;100997.03;;;15.40;65.15
19676;BME280;39539;52.202;9.876;2023-06-14T00:22:08;101004.38;;;15.44;65.05
19676;BME280;39539;52.202;9.876;2023-06-14T00:24:34;101006.38;;;15.37;65.85
19676;BME280;39539;52.202;9.876;2023-06-14T00:27:01;101012.41;;;15.33;66.42
19676;BME280;39539;52.202;9.876;2023-06-14T00:29:26;101010.19;;;15.30;65.86
19676;BME280;39539;52.202;9.876;2023-06-14T00:31:52;101012.75;;;15.24;66.44
19676;BME280;39539;52.202;9.876;2023-06-14T00:34:17;101012.16;;;15.22;66.87
19676;BME280;39539;52.202;9.876;2023-06-14T00:36:42;101013.66;;;15.18;66.64
19676;BME280;39539;52.202;9.876;2023-06-14T00:39:08;101012.13;;;15.11;67.01
19676;BME280;39539;52.202;9.876;2023-06-14T00:41:34;101014.66;;;15.05;67.25
19676;BME280;39539;52.202;9.876;2023-06-14T00:44:00;101011.88;;;15.00;67.48
19676;BME280;39539;52.202;9.876;2023-06-14T00:46:25;101008.44;;;14.93;68.49
19676;BME280;39539;52.202;9.876;2023-06-14T00:48:50;101019.81;;;14.89;68.68
19676;BME280;39539;52.202;9.876;2023-06-14T00:51:16;101018.81;;;14.71;70.01
19676;BME280;39539;52.202;9.876;2023-06-14T00:53:41;101017.72;;;14.60;70.36
19676;BME280;39539;52.202;9.876;2023-06-14T00:56:11;101013.19;;;14.43;71.50
19676;BME280;39539;52.202;9.876;2023-06-14T00:58:38;101013.47;;;14.34;72.58
19676;BME280;39539;52.202;9.876;2023-06-14T01:01:03;101013.19;;;14.24;73.06
19676;BME280;39539;52.202;9.876;2023-06-14T01:03:29;101017.78;;;14.17;73.21
19676;BME280;39539;52.202;9.876;2023-06-14T01:09:00;101015.69;;;14.01;74.40
19676;BME280;39539;52.202;9.876;2023-06-14T01:11:28;101024.16;;;13.98;75.08
19676;BME280;39539;52.202;9.876;2023-06-14T01:13:56;100999.63;;;13.82;75.46
19676;BME280;39539;52.202;9.876;2023-06-14T01:16:23;101014.13;;;13.93;75.23
19676;BME280;39539;52.202;9.876;2023-06-14T01:18:49;101032.47;;;14.08;73.37
19676;BME280;39539;52.202;9.876;2023-06-14T01:21:24;101027.31;;;14.13;73.13
19676;BME280;39539;52.202;9.876;2023-06-14T01:23:50;101045.72;;;14.21;72.76
19676;BME280;39539;52.202;9.876;2023-06-14T01:26:20;101038.72;;;14.20;72.63
19676;BME280;39539;52.202;9.876;2023-06-14T01:28:46;101043.06;;;14.21;72.86
19676;BME280;39539;52.202;9.876;2023-06-14T01:31:17;101021.72;;;14.14;72.32
19676;BME280;39539;52.202;9.876;2023-06-14T01:33:44;101036.75;;;14.15;72.70
19676;BME280;39539;52.202;9.876;2023-06-14T01:36:10;101039.97;;;14.18;72.70
19676;BME280;39539;52.202;9.876;2023-06-14T01:38:37;101035.59;;;14.05;73.41
19676;BME280;39539;52.202;9.876;2023-06-14T01:41:03;101033.22;;;13.97;74.48
19676;BME280;39539;52.202;9.876;2023-06-14T01:43:31;101040.41;;;13.96;74.70
19676;BME280;39539;52.202;9.876;2023-06-14T01:45:57;101038.22;;;13.86;76.04
19676;BME280;39539;52.202;9.876;2023-06-14T01:48:24;101037.69;;;13.78;76.12
19676;BME280;39539;52.202;9.876;2023-06-14T01:50:49;101044.28;;;13.75;76.24
19676;BME280;39539;52.202;9.876;2023-06-14T01:53:15;101050.94;;;13.66;76.03
19676;BME280;39539;52.202;9.876;2023-06-14T01:55:41;101044.41;;;13.62;76.29
19676;BME280;39539;52.202;9.876;2023-06-14T01:58:09;101042.19;;;13.59;77.19
19676;BME280;39539;52.202;9.876;2023-06-14T02:00:34;101047.09;;;13.62;76.38
19676;BME280;39539;52.202;9.876;2023-06-14T02:03:00;101049.16;;;13.60;76.54
19676;BME280;39539;52.202;9.876;2023-06-14T02:05:26;101050.41;;;13.57;76.93
19676;BME280;39539;52.202;9.876;2023-06-14T02:07:52;101047.94;;;13.56;77.69
19676;BME280;39539;52.202;9.876;2023-06-14T02:10:18;101051.25;;;13.51;77.31
19676;BME280;39539;52.202;9.876;2023-06-14T02:12:44;101055.78;;;13.51;77.76
19676;BME280;39539;52.202;9.876;2023-06-14T02:15:10;101057.03;;;13.48;77.62
19676;BME280;39539;52.202;9.876;2023-06-14T02:17:42;101058.75;;;13.36;78.13
19676;BME280;39539;52.202;9.876;2023-06-14T02:20:08;101047.91;;;13.24;78.78
19676;BME280;39539;52.202;9.876;2023-06-14T02:22:36;101037.91;;;13.13;78.94
19676;BME280;39539;52.202;9.876;2023-06-14T02:25:01;101042.50;;;13.06;80.19
19676;BME280;39539;52.202;9.876;2023-06-14T02:27:27;101030.50;;;12.83;81.33
19676;BME280;39539;52.202;9.876;2023-06-14T02:29:52;101043.03;;;12.76;82.15
19676;BME280;39539;52.202;9.876;2023-06-14T02:32:17;101045.50;;;12.77;82.66
19676;BME280;39539;52.202;9.876;2023-06-14T02:34:42;101051.88;;;12.70;83.38
19676;BME280;39539;52.202;9.876;2023-06-14T02:37:08;101052.94;;;12.62;84.19
19676;BME280;39539;52.202;9.876;2023-06-14T02:39:34;101062.59;;;12.56;85.41
19676;BME280;39539;52.202;9.876;2023-06-14T02:41:59;101061.19;;;12.47;85.41
19676;BME280;39539;52.202;9.876;2023-06-14T02:44:25;101063.66;;;12.49;85.84
19676;BME280;39539;52.202;9.876;2023-06-14T02:46:54;101067.75;;;12.45;85.23
19676;BME280;39539;52.202;9.876;2023-06-14T02:49:21;101080.06;;;12.39;85.96
19676;BME280;39539;52.202;9.876;2023-06-14T02:51:46;101078.47;;;12.31;85.60
19676;BME280;39539;52.202;9.876;2023-06-14T02:54:12;101072.72;;;12.28;85.49
19676;BME280;39539;52.202;9.876;2023-06-14T02:56:37;101070.28;;;12.26;85.48
19676;BME280;39539;52.202;9.876;2023-06-14T02:59:02;101098.97;;;12.38;85.63
19676;BME280;39539;52.202;9.876;2023-06-14T03:01:28;101095.88;;;12.34;85.95
19676;BME280;39539;52.202;9.876;2023-06-14T03:04:03;101095.06;;;12.33;87.05
19676;BME280;39539;52.202;9.876;2023-06-14T03:06:31;101096.72;;;12.34;86.63
19676;BME280;39539;52.202;9.876;2023-06-14T03:08:57;101105.09;;;12.38;86.76
19676;BME280;39539;52.202;9.876;2023-06-14T03:11:29;101104.28;;;12.38;86.58
19676;BME280;39539;52.202;9.876;2023-06-14T03:13:55;101100.81;;;12.37;86.33
19676;BME280;39539;52.202;9.876;2023-06-14T03:16:21;101106.53;;;12.41;86.90
19676;BME280;39539;52.202;9.876;2023-06-14T03:18:52;101107.16;;;12.36;87.08
19676;BME280;39539;52.202;9.876;2023-06-14T03:21:18;101121.50;;;12.42;86.36
19676;BME280;39539;52.202;9.876;2023-06-14T03:23:46;101121.91;;;12.45;86.01
19676;BME280;39539;52.202;9.876;2023-06-14T03:26:13;101127.22;;;12.45;85.79
19676;BME280;39539;52.202;9.876;2023-06-14T03:28:46;101122.31;;;12.49;85.54
19676;BME280;39539;52.202;9.876;2023-06-14T03:31:12;101132.16;;;12.55;85.50
19676;BME280;39539;52.202;9.876;2023-06-14T03:33:38;101127.66;;;12.49;85.99
19676;BME280;39539;52.202;9.876;2023-06-14T03:36:04;101122.31;;;12.42;86.28
19676;BME280;39539;52.202;9.876;2023-06-14T03:38:30;101134.00;;;12.54;86.21
19676;BME280;39539;52.202;9.876;2023-06-14T03:40:55;101130.94;;;12.44;86.64
19676;BME280;39539;52.202;9.876;2023-06-14T03:43:21;101148.16;;;12.48;86.94
19676;BME280;39539;52.202;9.876;2023-06-14T03:45:46;101148.53;;;12.58;86.54
19676;BME280;39539;52.202;9.876;2023-06-14T03:48:11;101149.78;;;12.56;86.82
19676;BME280;39539;52.202;9.876;2023-06-14T03:50:37;101153.25;;;12.70;85.68
19676;BME280;39539;52.202;9.876;2023-06-14T03:53:04;101166.56;;;12.83;84.75
19676;BME280;39539;52.202;9.876;2023-06-14T03:55:29;101169.38;;;12.95;84.29
19676;BME280;39539;52.202;9.876;2023-06-14T03:57:56;101167.13;;;12.98;83.29
19676;BME280;39539;52.202;9.876;2023-06-14T04:00:22;101158.25;;;13.04;83.49
19676;BME280;39539;52.202;9.876;2023-06-14T04:02:47;101181.63;;;13.16;83.18
19676;BME280;39539;52.202;9.876;2023-06-14T04:05:13;101177.53;;;13.20;82.43
19676;BME280;39539;52.202;9.876;2023-06-14T04:07:41;101168.03;;;13.24;83.01
19676;BME280;39539;52.202;9.876;2023-06-14T04:10:11;101170.38;;;13.14;82.75
19676;BME280;39539;52.202;9.876;2023-06-14T04:12:37;101168.97;;;12.98;83.31
19676;BME280;39539;52.202;9.876;2023-06-14T04:15:03;101175.53;;;12.95;84.59
19676;BME280;39539;52.202;9.876;2023-06-14T04:17:31;101173.31;;;12.86;84.65
19676;BME280;39539;52.202;9.876;2023-06-14T04:19:58;101169.59;;;12.93;84.73
19676;BME280;39539;52.202;9.876;2023-06-14T04:22:25;101173.88;;;13.01;84.73
19676;BME280;39539;52.202;9.876;2023-06-14T04:24:53;101164.84;;;13.09;83.66
19676;BME280;39539;52.202;9.876;2023-06-14T04:27:20;101182.50;;;13.03;83.86
19676;BME280;39539;52.202;9.876;2023-06-14T04:29:46;101192.75;;;13.06;84.31
19676;BME280;39539;52.202;9.876;2023-06-14T04:32:14;101187.03;;;12.96;84.98
19676;BME280;39539;52.202;9.876;2023-06-14T04:34:40;101191.50;;;13.15;84.78
19676;BME280;39539;52.202;9.876;2023-06-14T04:37:06;101182.47;;;13.16;84.45
19676;BME280;39539;52.202;9.876;2023-06-14T04:39:33;101210.75;;;13.24;84.91
19676;BME280;39539;52.202;9.876;2023-06-14T04:41:58;101208.28;;;13.42;84.76
19676;BME280;39539;52.202;9.876;2023-06-14T04:44:25;101208.94;;;13.69;82.79
19676;BME280;39539;52.202;9.876;2023-06-14T04:46:56;101222.44;;;13.81;82.46
19676;BME280;39539;52.202;9.876;2023-06-14T04:49:21;101211.84;;;13.68;83.47
19676;BME280;39539;52.202;9.876;2023-06-14T04:51:48;101229.81;;;13.86;82.67
19676;BME280;39539;52.202;9.876;2023-06-14T04:54:22;101211.53;;;13.83;82.70
19676;BME280;39539;52.202;9.876;2023-06-14T04:56:51;101220.19;;;13.78;83.12
19676;BME280;39539;52.202;9.876;2023-06-14T04:59:17;101209.25;;;13.86;83.28
19676;BME280;39539;52.202;9.876;2023-06-14T05:01:42;101219.25;;;13.98;82.88
19676;BME280;39539;52.202;9.876;2023-06-14T05:04:13;101229.13;;;14.29;81.75
19676;BME280;39539;52.202;9.876;2023-06-14T05:06:39;101221.34;;;14.21;82.02
19676;BME280;39539;52.202;9.876;2023-06-14T05:09:04;101233.56;;;14.42;80.54
19676;BME280;39539;52.202;9.876;2023-06-14T05:11:30;101243.13;;;14.56;78.52
19676;BME280;39539;52.202;9.876;2023-06-14T05:13:55;101231.25;;;14.45;80.75
19676;BME280;39539;52.202;9.876;2023-06-14T05:16:20;101244.50;;;14.65;79.71
19676;BME280;39539;52.202;9.876;2023-06-14T05:18:48;101229.03;;;14.67;78.87
19676;BME280;39539;52.202;9.876;2023-06-14T05:21:14;101230.00;;;14.48;80.92
19676;BME280;39539;52.202;9.876;2023-06-14T05:23:43;101236.69;;;14.64;81.48
19676;BME280;39539;52.202;9.876;2023-06-14T05:26:10;101236.28;;;14.60;81.43
19676;BME280;39539;52.202;9.876;2023-06-14T05:28:35;101243.59;;;14.71;80.56
19676;BME280;39539;52.202;9.876;2023-06-14T05:31:01;101242.19;;;14.69;80.60
19676;BME280;39539;52.202;9.876;2023-06-14T05:33:27;101237.81;;;14.74;81.02
19676;BME280;39539;52.202;9.876;2023-06-14T05:35:52;101241.56;;;14.92;80.30
19676;BME280;39539;52.202;9.876;2023-06-14T05:38:18;101246.50;;;14.95;79.71
19676;BME280;39539;52.202;9.876;2023-06-14T05:40:43;101234.72;;;14.96;78.83
19676;BME280;39539;52.202;9.876;2023-06-14T05:43:08;101250.97;;;15.38;77.64
19676;BME280;39539;52.202;9.876;2023-06-14T05:45:34;101249.75;;;15.52;77.47
19676;BME280;39539;52.202;9.876;2023-06-14T05:47:59;101254.84;;;15.90;75.41
19676;BME280;39539;52.202;9.876;2023-06-14T05:50:25;101248.25;;;15.75;74.69
19676;BME280;39539;52.202;9.876;2023-06-14T05:52:50;101248.81;;;15.77;75.09
19676;BME280;39539;52.202;9.876;2023-06-14T05:55:16;101236.84;;;15.79;74.05
19676;BME280;39539;52.202;9.876;2023-06-14T05:57:42;101252.75;;;15.92;75.53
19676;BME280;39539;52.202;9.876;2023-06-14T06:00:08;101251.94;;;15.92;75.51
19676;BME280;39539;52.202;9.876;2023-06-14T06:02:40;101251.94;;;15.92;73.75
19676;BME280;39539;52.202;9.876;2023-06-14T06:05:07;101259.88;;;16.52;72.81
19676;BME280;39539;52.202;9.876;2023-06-14T06:07:33;101266.13;;;17.00;69.27
19676;BME280;39539;52.202;9.876;2023-06-14T06:09:59;101266.06;;;17.35;68.06
19676;BME280;39539;52.202;9.876;2023-06-14T06:12:24;101254.28;;;17.24;67.66
19676;BME280;39539;52.202;9.876;2023-06-14T06:14:50;101257.09;;;17.70;65.81
19676;BME280;39539;52.202;9.876;2023-06-14T06:17:15;101254.72;;;18.81;62.04
19676;BME280;39539;52.202;9.876;2023-06-14T06:19:40;101234.16;;;18.42;61.87
19676;BME280;39539;52.202;9.876;2023-06-14T06:22:06;101242.63;;;18.33;63.38
19676;BME280;39539;52.202;9.876;2023-06-14T06:24:32;101247.28;;;19.11;61.28
19676;BME280;39539;52.202;9.876;2023-06-14T06:26:57;101246.34;;;20.20;57.77
19676;BME280;39539;52.202;9.876;2023-06-14T06:29:23;101241.63;;;20.37;56.99
19676;BME280;39539;52.202;9.876;2023-06-14T06:31:48;101226.53;;;19.77;57.67
19676;BME280;39539;52.202;9.876;2023-06-14T06:34:13;101225.16;;;19.74;58.33
19676;BME280;39539;52.202;9.876;2023-06-14T06:36:39;101240.06;;;20.41;56.59
19676;BME280;39539;52.202;9.876;2023-06-14T06:39:04;101251.00;;;20.99;54.77
19676;BME280;39539;52.202;9.876;2023-06-14T06:41:38;101239.94;;;22.86;50.41
19676;BME280;39539;52.202;9.876;2023-06-14T06:44:05;101240.06;;;23.41;48.04
19676;BME280;39539;52.202;9.876;2023-06-14T06:46:32;101229.94;;;25.13;45.60
19676;BME280;39539;52.202;9.876;2023-06-14T06:48:58;101225.34;;;27.01;42.56
19676;BME280;39539;52.202;9.876;2023-06-14T06:51:23;101199.38;;;26.16;43.06
19676;BME280;39539;52.202;9.876;2023-06-14T06:53:53;101207.75;;;28.16;40.46
19676;BME280;39539;52.202;9.876;2023-06-14T06:56:19;101176.16;;;26.18;42.02
19676;BME280;39539;52.202;9.876;2023-06-14T06:58:46;101186.34;;;28.81;39.50
19676;BME280;39539;52.202;9.876;2023-06-14T07:01:11;101181.47;;;29.52;37.51
19676;BME280;39539;52.202;9.876;2023-06-14T07:03:37;101183.84;;;30.15;37.33
19676;BME280;39539;52.202;9.876;2023-06-14T07:06:03;101171.06;;;28.88;37.98
19676;BME280;39539;52.202;9.876;2023-06-14T07:08:29;101154.44;;;31.01;35.47
19676;BME280;39539;52.202;9.876;2023-06-14T07:10:54;101146.81;;;31.82;34.21
19676;BME280;39539;52.202;9.876;2023-06-14T07:13:20;101138.34;;;32.69;32.81
19676;BME280;39539;52.202;9.876;2023-06-14T07:15:46;101119.47;;;31.52;33.88
19676;BME280;39539;52.202;9.876;2023-06-14T07:18:15;101117.47;;;32.43;32.80
19676;BME280;39539;52.202;9.876;2023-06-14T07:20:41;101101.75;;;32.32;33.25
19676;BME280;39539;52.202;9.876;2023-06-14T07:23:08;101085.03;;;30.41;34.95
19676;BME280;39539;52.202;9.876;2023-06-14T07:25:33;101092.75;;;30.69;35.56
19676;BME280;39539;52.202;9.876;2023-06-14T07:27:59;101089.63;;;30.79;35.38
19676;BME280;39539;52.202;9.876;2023-06-14T07:30:24;101085.50;;;31.15;34.35
19676;BME280;39539;52.202;9.876;2023-06-14T07:32:52;101097.09;;;33.38;33.18
19676;BME280;39539;52.202;9.876;2023-06-14T07:35:18;101090.94;;;34.52;31.55
19676;BME280;39539;52.202;9.876;2023-06-14T07:37:43;101076.19;;;35.38;29.71
19676;BME280;39539;52.202;9.876;2023-06-14T07:40:09;101069.13;;;33.23;31.96
19676;BME280;39539;52.202;9.876;2023-06-14T07:42:37;101062.97;;;31.21;33.50
19676;BME280;39539;52.202;9.876;2023-06-14T07:45:03;101054.81;;;28.11;37.14
19676;BME280;39539;52.202;9.876;2023-06-14T07:47:29;101043.53;;;28.70;37.72
19676;BME280;39539;52.202;9.876;2023-06-14T07:49:55;101057.56;;;28.69;36.81
19676;BME280;39539;52.202;9.876;2023-06-14T07:52:20;101059.09;;;30.30;35.26
19676;BME280;39539;52.202;9.876;2023-06-14T07:54:46;101076.66;;;31.09;33.82
19676;BME280;39539;52.202;9.876;2023-06-14T07:57:11;101060.16;;;31.63;34.06
19676;BME280;39539;52.202;9.876;2023-06-14T07:59:37;101058.88;;;32.06;33.58
19676;BME280;39539;52.202;9.876;2023-06-14T08:02:02;101058.13;;;33.67;31.78
19676;BME280;39539;52.202;9.876;2023-06-14T08:04:28;101048.34;;;33.70;30.85
19676;BME280;39539;52.202;9.876;2023-06-14T08:06:53;101060.16;;;33.54;31.26
19676;BME280;39539;52.202;9.876;2023-06-14T08:09:19;101054.53;;;34.46;29.65
19676;BME280;39539;52.202;9.876;2023-06-14T08:11:44;101033.16;;;31.77;31.55
19676;BME280;39539;52.202;9.876;2023-06-14T08:14:10;101030.53;;;29.92;34.58
19676;BME280;39539;52.202;9.876;2023-06-14T08:16:36;101021.78;;;29.99;34.21
19676;BME280;39539;52.202;9.876;2023-06-14T08:19:01;101026.38;;;29.77;34.93
19676;BME280;39539;52.202;9.876;2023-06-14T08:21:26;101020.38;;;29.20;35.71
19676;BME280;39539;52.202;9.876;2023-06-14T08:23:54;101055.56;;;31.55;33.57
19676;BME280;39539;52.202;9.876;2023-06-14T08:26:20;101045.63;;;31.75;32.38
19676;BME280;39539;52.202;9.876;2023-06-14T08:28:46;101025.97;;;30.85;33.12
19676;BME280;39539;52.202;9.876;2023-06-14T08:31:11;101045.50;;;31.05;32.55
19676;BME280;39539;52.202;9.876;2023-06-14T08:33:38;101063.00;;;32.61;31.25
19676;BME280;39539;52.202;9.876;2023-06-14T08:36:08;101053.22;;;32.64;31.71
19676;BME280;39539;52.202;9.876;2023-06-14T08:38:33;101045.00;;;33.48;30.36
19676;BME280;39539;52.202;9.876;2023-06-14T08:41:00;101049.44;;;33.37;30.88
19676;BME280;39539;52.202;9.876;2023-06-14T08:43:26;101042.81;;;32.57;31.02
19676;BME280;39539;52.202;9.876;2023-06-14T08:45:59;101031.78;;;32.45;31.63
19676;BME280;39539;52.202;9.876;2023-06-14T08:48:29;101033.09;;;30.86;32.41
19676;BME280;39539;52.202;9.876;2023-06-14T08:51:01;101034.81;;;30.91;32.55
19676;BME280;39539;52.202;9.876;2023-06-14T08:53:33;101018.78;;;29.83;34.32
19676;BME280;39539;52.202;9.876;2023-06-14T08:56:02;101041.47;;;31.23;32.85
19676;BME280;39539;52.202;9.876;2023-06-14T08:58:30;101035.50;;;31.21;32.29
19676;BME280;39539;52.202;9.876;2023-06-14T09:00:57;101028.78;;;30.98;32.40
19676;BME280;39539;52.202;9.876;2023-06-14T09:03:23;101042.03;;;31.50;31.83
19676;BME280;39539;52.202;9.876;2023-06-14T09:05:58;101047.41;;;31.92;31.51
19676;BME280;39539;52.202;9.876;2023-06-14T09:08:29;101014.72;;;30.28;32.84
19676;BME280;39539;52.202;9.876;2023-06-14T09:10:57;101009.19;;;30.07;33.08
19676;BME280;39539;52.202;9.876;2023-06-14T09:13:23;101057.72;;;32.07;32.25
19676;BME280;39539;52.202;9.876;2023-06-14T09:15:49;101046.16;;;32.51;31.56
19676;BME280;39539;52.202;9.876;2023-06-14T09:18:15;101028.81;;;31.31;32.57
19676;BME280;39539;52.202;9.876;2023-06-14T09:20:40;101052.22;;;32.56;31.16
19676;BME280;39539;52.202;9.876;2023-06-14T09:23:06;101020.50;;;30.35;32.88
19676;BME280;39539;52.202;9.876;2023-06-14T09:25:38;101039.28;;;30.96;33.11
19676;BME280;39539;52.202;9.876;2023-06-14T09:28:07;101046.31;;;31.60;31.70
19676;BME280;39539;52.202;9.876;2023-06-14T09:30:33;101049.88;;;31.06;32.44
19676;BME280;39539;52.202;9.876;2023-06-14T09:32:59;101034.00;;;31.12;32.41
19676;BME280;39539;52.202;9.876;2023-06-14T09:35:24;101054.06;;;32.28;32.17
19676;BME280;39539;52.202;9.876;2023-06-14T09:37:50;101029.91;;;30.97;32.34
19676;BME280;39539;52.202;9.876;2023-06-14T09:40:20;101039.81;;;30.09;33.03
19676;BME280;39539;52.202;9.876;2023-06-14T09:42:47;101045.03;;;30.31;33.61
19676;BME280;39539;52.202;9.876;2023-06-14T09:45:13;101049.88;;;31.72;32.40
19676;BME280;39539;52.202;9.876;2023-06-14T09:47:39;101055.69;;;32.53;30.97
19676;BME280;39539;52.202;9.876;2023-06-14T09:50:06;101024.06;;;30.86;31.92
19676;BME280;39539;52.202;9.876;2023-06-14T09:52:31;101035.22;;;31.68;31.31
19676;BME280;39539;52.202;9.876;2023-06-14T09:54:59;101021.84;;;31.13;32.37
19676;BME280;39539;52.202;9.876;2023-06-14T09:57:25;101029.97;;;31.88;31.34
19676;BME280;39539;52.202;9.876;2023-06-14T09:59:57;101018.78;;;30.72;32.69
19676;BME280;39539;52.202;9.876;2023-06-14T10:02:26;101031.53;;;30.98;32.42
19676;BME280;39539;52.202;9.876;2023-06-14T10:05:15;101010.41;;;28.72;34.73
19676;BME280;39539;52.202;9.876;2023-06-14T10:07:48;101015.56;;;29.25;34.61
19676;BME280;39539;52.202;9.876;2023-06-14T10:10:15;101027.91;;;31.06;33.68
19676;BME280;39539;52.202;9.876;2023-06-14T10:12:40;101033.38;;;31.72;32.04
19676;BME280;39539;52.202;9.876;2023-06-14T10:15:15;101040.31;;;32.03;31.62
19676;BME280;39539;52.202;9.876;2023-06-14T10:18:46;101021.59;;;31.05;32.62
19676;BME280;39539;52.202;9.876;2023-06-14T10:21:13;101017.53;;;30.10;33.84
19676;BME280;39539;52.202;9.876;2023-06-14T10:23:42;101008.69;;;29.58;34.29
19676;BME280;39539;52.202;9.876;2023-06-14T10:26:18;100992.03;;;29.33;34.02
19676;BME280;39539;52.202;9.876;2023-06-14T10:28:56;101022.91;;;29.51;34.56
19676;BME280;39539;52.202;9.876;2023-06-14T10:31:22;100998.94;;;27.95;36.37
19676;BME280;39539;52.202;9.876;2023-06-14T10:33:56;101005.69;;;25.85;39.12
19676;BME280;39539;52.202;9.876;2023-06-14T10:41:27;101010.25;;;25.57;40.38
19676;BME280;39539;52.202;9.876;2023-06-14T10:46:35;101006.34;;;24.92;40.52
19676;BME280;39539;52.202;9.876;2023-06-14T10:49:02;100998.47;;;24.29;41.53
19676;BME280;39539;52.202;9.876;2023-06-14T10:51:29;100995.63;;;24.82;40.73
19676;BME280;39539;52.202;9.876;2023-06-14T10:53:58;101001.63;;;23.64;43.94
19676;BME280;39539;52.202;9.876;2023-06-14T10:56:29;101000.94;;;24.06;43.75
19676;BME280;39539;52.202;9.876;2023-06-14T10:58:57;101003.09;;;24.28;43.17
19676;BME280;39539;52.202;9.876;2023-06-14T11:01:35;100998.09;;;23.92;43.26
19676;BME280;39539;52.202;9.876;2023-06-14T11:04:09;101015.03;;;24.08;43.47
19676;BME280;39539;52.202;9.876;2023-06-14T11:06:49;101013.78;;;24.01;43.69
19676;BME280;39539;52.202;9.876;2023-06-14T11:12:00;101016.53;;;24.44;43.06
19676;BME280;39539;52.202;9.876;2023-06-14T11:14:30;101017.69;;;24.13;42.95
19676;BME280;39539;52.202;9.876;2023-06-14T11:16:56;101028.25;;;24.39;44.56
19676;BME280;39539;52.202;9.876;2023-06-14T11:19:21;101008.81;;;24.51;44.06
19676;BME280;39539;52.202;9.876;2023-06-14T11:21:48;101020.41;;;24.13;44.21
19676;BME280;39539;52.202;9.876;2023-06-14T11:24:14;101015.16;;;23.98;43.63
19676;BME280;39539;52.202;9.876;2023-06-14T11:26:41;101031.72;;;23.67;44.05
19676;BME280;39539;52.202;9.876;2023-06-14T11:29:06;101012.25;;;23.89;44.18
19676;BME280;39539;52.202;9.876;2023-06-14T11:31:32;101021.69;;;24.40;44.37
19676;BME280;39539;52.202;9.876;2023-06-14T11:33:59;101021.78;;;24.35;44.24
19676;BME280;39539;52.202;9.876;2023-06-14T11:36:29;101022.50;;;24.64;43.55
19676;BME280;39539;52.202;9.876;2023-06-14T11:39:06;101016.06;;;24.60;42.96
19676;BME280;39539;52.202;9.876;2023-06-14T11:41:38;101032.00;;;25.05;42.92
19676;BME280;39539;52.202;9.876;2023-06-14T11:44:06;101017.44;;;24.58;43.60
19676;BME280;39539;52.202;9.876;2023-06-14T11:46:32;101016.75;;;24.47;43.99
19676;BME280;39539;52.202;9.876;2023-06-14T11:48:58;101025.75;;;24.67;43.57
19676;BME280;39539;52.202;9.876;2023-06-14T11:51:23;101024.44;;;24.83;43.20
19676;BME280;39539;52.202;9.876;2023-06-14T11:53:49;101015.75;;;24.43;43.39
19676;BME280;39539;52.202;9.876;2023-06-14T11:56:15;101007.94;;;24.12;43.46
19676;BME280;39539;52.202;9.876;2023-06-14T11:58:43;101011.31;;;23.99;44.72
19676;BME280;39539;52.202;9.876;2023-06-14T12:01:08;100993.69;;;23.72;44.58
19676;BME280;39539;52.202;9.876;2023-06-14T12:03:34;101027.00;;;24.07;44.51
19676;BME280;39539;52.202;9.876;2023-06-14T12:06:08;101024.16;;;24.17;44.99
19676;BME280;39539;52.202;9.876;2023-06-14T12:08:38;101030.34;;;24.47;44.59
19676;BME280;39539;52.202;9.876;2023-06-14T12:11:13;101031.78;;;24.63;44.55
19676;BME280;39539;52.202;9.876;2023-06-14T12:13:41;101027.28;;;24.73;43.06
19676;BME280;39539;52.202;9.876;2023-06-14T12:16:11;101015.25;;;24.36;43.46
19676;BME280;39539;52.202;9.876;2023-06-14T12:18:38;101018.91;;;24.50;43.96
19676;BME280;39539;52.202;9.876;2023-06-14T12:21:09;101029.94;;;24.78;43.19
19676;BME280;39539;52.202;9.876;2023-06-14T12:23:46;101031.94;;;24.91;43.26
19676;BME280;39539;52.202;9.876;2023-06-14T12:26:15;101025.47;;;24.87;43.13
19676;BME280;39539;52.202;9.876;2023-06-14T12:28:51;101015.19;;;24.41;43.90
19676;BME280;39539;52.202;9.876;2023-06-14T12:31:17;101022.59;;;24.35;44.89
19676;BME280;39539;52.202;9.876;2023-06-14T12:33:44;101025.97;;;24.89;44.23
19676;BME280;39539;52.202;9.876;2023-06-14T12:36:11;101028.38;;;25.09;43.80
19676;BME280;39539;52.202;9.876;2023-06-14T12:38:40;101030.91;;;25.58;43.26
19676;BME280;39539;52.202;9.876;2023-06-14T12:41:05;101023.47;;;25.63;42.08
19676;BME280;39539;52.202;9.876;2023-06-14T12:43:31;101020.75;;;25.12;44.04
19676;BME280;39539;52.202;9.876;2023-06-14T12:45:56;101021.00;;;24.77;43.51
19676;BME280;39539;52.202;9.876;2023-06-14T12:48:22;101028.91;;;24.74;43.13
19676;BME280;39539;52.202;9.876;2023-06-14T12:50:47;101010.28;;;24.19;43.65
19676;BME280;39539;52.202;9.876;2023-06-14T12:53:13;101016.66;;;24.09;43.84
19676;BME280;39539;52.202;9.876;2023-06-14T12:55:39;101022.19;;;24.23;44.56
19676;BME280;39539;52.202;9.876;2023-06-14T12:58:05;101018.03;;;24.31;43.88
19676;BME280;39539;52.202;9.876;2023-06-14T13:00:30;101019.88;;;24.11;45.08
19676;BME280;39539;52.202;9.876;2023-06-14T13:02:56;101017.81;;;24.89;44.85